createdAt,value
2022-11-19T00:01:32.355Z,16
2022-11-19T00:03:32.419Z,16
2022-11-19T00:05:32.542Z,16
2022-11-19T00:07:32.665Z,16
2022-11-19T00:09:32.746Z,16
2022-11-19T00:11:32.804Z,16
2022-11-19T00:13:32.876Z,16
2022-11-19T00:15:32.967Z,16
2022-11-19T00:17:33.062Z,17
2022-11-19T00:19:33.145Z,17
2022-11-19T00:22:03.304Z,16
2022-11-19T00:24:03.418Z,15
2022-11-19T00:26:03.537Z,16
2022-11-19T00:28:03.643Z,15
2022-11-19T00:30:10.946Z,16
2022-11-19T00:32:03.876Z,15
2022-11-19T00:34:04.001Z,15
2022-11-19T00:36:04.077Z,15
2022-11-19T00:38:04.208Z,15
2022-11-19T00:40:04.294Z,15
2022-11-19T00:42:04.427Z,15
2022-11-19T00:44:04.547Z,14
2022-11-19T00:48:04.746Z,12
2022-11-19T00:50:04.885Z,12
2022-11-19T00:52:04.999Z,11
2022-11-19T00:54:05.104Z,10
2022-11-19T00:56:05.226Z,10
2022-11-19T00:58:05.322Z,10
2022-11-19T01:00:05.419Z,9
2022-11-19T01:02:05.517Z,7
2022-11-19T01:04:05.666Z,8
2022-11-19T01:06:05.758Z,8
2022-11-19T01:08:05.863Z,8
2022-11-19T01:10:06.014Z,7
2022-11-19T01:12:06.059Z,7
2022-11-19T01:14:06.166Z,7
2022-11-19T01:16:06.272Z,6
2022-11-19T01:18:06.406Z,6
2022-11-19T01:20:06.561Z,6
2022-11-19T01:22:06.617Z,7
2022-11-19T01:24:06.718Z,6
2022-11-19T01:26:06.829Z,6
2022-11-19T01:28:06.950Z,7
2022-11-19T01:30:07.069Z,6
2022-11-19T01:32:07.153Z,6
2022-11-19T01:36:07.383Z,5
2022-11-19T01:38:07.486Z,5
2022-11-19T01:40:07.615Z,5
2022-11-19T01:42:07.728Z,5
2022-11-19T01:44:07.797Z,5
2022-11-19T01:46:07.886Z,5
2022-11-19T01:48:07.977Z,5
2022-11-19T01:50:08.111Z,7
2022-11-19T01:52:08.242Z,6
2022-11-19T01:54:08.288Z,6
2022-11-19T01:56:08.391Z,5
2022-11-19T02:00:08.604Z,6
2022-11-19T02:02:08.703Z,7
2022-11-19T02:04:08.782Z,7
2022-11-19T02:06:08.888Z,7
2022-11-19T02:08:08.978Z,7
2022-11-19T02:10:09.276Z,7
2022-11-19T02:12:09.149Z,6
2022-11-19T02:14:09.252Z,6
2022-11-19T02:16:09.339Z,6
2022-11-19T02:20:09.508Z,7
2022-11-19T02:22:09.589Z,7
2022-11-19T02:26:09.797Z,7
2022-11-19T02:30:09.982Z,7
2022-11-19T02:32:10.054Z,6
2022-11-19T02:34:10.140Z,7
2022-11-19T02:36:10.255Z,6
2022-11-19T02:38:10.335Z,7
2022-11-19T02:40:10.425Z,6
2022-11-19T02:42:10.509Z,7
2022-11-19T02:46:10.680Z,6
2022-11-19T02:48:10.768Z,7
2022-11-19T02:50:10.884Z,7
2022-11-19T02:52:10.985Z,7
2022-11-19T02:54:11.124Z,7
2022-11-19T02:56:11.164Z,7
2022-11-19T02:58:11.285Z,7
2022-11-19T03:00:11.384Z,7
2022-11-19T03:02:11.467Z,7
2022-11-19T03:04:11.547Z,7
2022-11-19T03:06:11.626Z,7
2022-11-19T03:08:11.733Z,7
2022-11-19T03:10:11.834Z,7
2022-11-19T03:12:11.921Z,7
2022-11-19T03:14:12.078Z,7
2022-11-19T03:16:12.102Z,7
2022-11-19T03:22:12.376Z,7
2022-11-19T03:26:12.536Z,7
2022-11-19T03:28:12.628Z,7
2022-11-19T03:30:12.715Z,7
2022-11-19T03:34:12.899Z,7
2022-11-19T03:38:13.128Z,7
2022-11-19T03:42:13.264Z,7
2022-11-19T03:44:13.338Z,7
2022-11-19T03:48:13.548Z,7
2022-11-19T03:50:13.640Z,7
2022-11-19T03:54:13.789Z,7
2022-11-19T03:56:13.902Z,7
2022-11-19T03:58:13.991Z,6
2022-11-19T04:00:14.093Z,6
2022-11-19T04:02:14.185Z,7
2022-11-19T04:08:14.435Z,6
2022-11-19T04:10:14.536Z,6
2022-11-19T04:12:44.760Z,7
2022-11-19T04:14:44.804Z,6
2022-11-19T04:16:45.026Z,6
2022-11-19T04:18:45.004Z,6
2022-11-19T04:20:45.115Z,6
2022-11-19T04:22:45.214Z,7
2022-11-19T04:24:45.342Z,7
2022-11-19T04:26:45.458Z,7
2022-11-19T04:28:45.576Z,7
2022-11-19T04:30:45.681Z,6
2022-11-19T04:32:45.785Z,6
2022-11-19T04:34:45.919Z,6
2022-11-19T04:36:46.015Z,5
2022-11-19T04:38:46.116Z,5
2022-11-19T04:40:46.232Z,5
2022-11-19T04:42:46.361Z,5
2022-11-19T04:44:46.452Z,5
2022-11-19T04:46:46.583Z,4
2022-11-19T04:48:46.659Z,4
2022-11-19T04:50:46.755Z,4
2022-11-19T04:52:46.867Z,4
2022-11-19T04:56:47.074Z,4
2022-11-19T04:58:47.153Z,4
2022-11-19T05:00:47.265Z,5
2022-11-19T05:02:47.383Z,8
2022-11-19T05:04:47.514Z,7
2022-11-19T05:06:47.662Z,6
2022-11-19T05:10:47.848Z,6
2022-11-19T05:12:47.953Z,6
2022-11-19T05:14:48.061Z,5
2022-11-19T05:16:48.175Z,8
2022-11-19T05:18:48.284Z,8
2022-11-19T05:20:48.399Z,10
2022-11-19T05:22:48.549Z,9
2022-11-19T05:24:48.599Z,10
2022-11-19T05:26:48.734Z,9
2022-11-19T05:28:48.830Z,7
2022-11-19T05:30:48.945Z,6
2022-11-19T05:32:49.050Z,5
2022-11-19T05:34:49.176Z,4
